Time;durP1;ratioP1;P1;durP2;ratioP2;P2;SDS_P1;SDS_P2;PMS_P1;PMS_P2;Temp;Humidity;BMP_temperature;BMP_pressure;BME280_temperature;BME280_humidity;BME280_pressure;Samples;Min_cycle;Max_cycle;Signal;HPM_P1;HPM_P2
2022/07/22 00:02:08;;;;;;;13.95;5.20;;;;;;;;;;5128878;27;20043;-73
2022/07/22 00:04:38;;;;;;;12.23;4.78;;;;;;;;;;5128327;27;20035;-72
2022/07/22 00:07:08;;;;;;;10.82;4.80;;;;;;;;;;5128424;27;20054;-72
2022/07/22 00:09:38;;;;;;;7.50;5.25;;;;;;;;;;5127595;27;20055;-73
2022/07/22 00:12:09;;;;;;;8.50;4.25;;;;;;;;;;5124383;27;20470;-73
2022/07/22 00:14:40;;;;;;;6.05;4.05;;;;;;;;;;5129163;27;20039;-73
2022/07/22 00:17:11;;;;;;;7.18;4.47;;;;;;;;;;5128401;27;20031;-73
2022/07/22 00:19:40;;;;;;;7.32;4.57;;;;;;;;;;5128029;27;20055;-73
2022/07/22 00:22:10;;;;;;;6.97;4.13;;;;;;;;;;5128119;27;20046;-73
2022/07/22 00:24:40;;;;;;;9.60;4.75;;;;;;;;;;5127804;27;20494;-73
2022/07/22 00:27:10;;;;;;;9.10;5.38;;;;;;;;;;5127422;27;20760;-72
2022/07/22 00:29:40;;;;;;;11.27;4.85;;;;;;;;;;5128634;27;20050;-73
2022/07/22 00:32:10;;;;;;;11.65;5.05;;;;;;;;;;5128187;27;20421;-73
2022/07/22 00:34:41;;;;;;;10.30;4.82;;;;;;;;;;5126957;27;20062;-73
2022/07/22 00:37:10;;;;;;;9.65;4.50;;;;;;;;;;5127791;27;20508;-73
2022/07/22 00:39:40;;;;;;;8.15;4.60;;;;;;;;;;5128424;27;20031;-73
2022/07/22 00:42:10;;;;;;;9.88;5.20;;;;;;;;;;5128523;27;20493;-73
2022/07/22 00:44:41;;;;;;;10.60;4.75;;;;;;;;;;5127672;27;20407;-72
2022/07/22 00:47:11;;;;;;;9.15;5.40;;;;;;;;;;5126851;27;20047;-73
2022/07/22 00:49:41;;;;;;;6.28;4.60;;;;;;;;;;5126571;27;20047;-73
2022/07/22 00:52:11;;;;;;;7.72;5.15;;;;;;;;;;5126315;27;20051;-72
2022/07/22 00:54:42;;;;;;;10.27;5.25;;;;;;;;;;5128431;27;20050;-72
2022/07/22 00:57:12;;;;;;;7.95;4.50;;;;;;;;;;5127997;27;20050;-73
2022/07/22 00:59:42;;;;;;;9.45;5.47;;;;;;;;;;5126054;27;20055;-73
2022/07/22 01:02:12;;;;;;;6.60;4.43;;;;;;;;;;5127211;27;20051;-73
2022/07/22 01:04:42;;;;;;;8.10;4.53;;;;;;;;;;5126805;27;20054;-74
2022/07/22 01:07:14;;;;;;;13.65;4.20;;;;;;;;;;5127420;27;20061;-74
2022/07/22 01:09:46;;;;;;;8.93;4.55;;;;;;;;;;5124124;27;20046;-74
2022/07/22 01:12:16;;;;;;;9.00;5.05;;;;;;;;;;5126414;27;20410;-73
2022/07/22 01:14:46;;;;;;;8.82;4.95;;;;;;;;;;5124185;27;20031;-73
2022/07/22 01:17:16;;;;;;;14.07;4.80;;;;;;;;;;5126687;27;20517;-73
2022/07/22 01:19:47;;;;;;;7.50;4.65;;;;;;;;;;5122947;28;20040;-73
2022/07/22 01:22:17;;;;;;;9.05;4.43;;;;;;;;;;5125658;27;20051;-73
2022/07/22 01:24:47;;;;;;;9.23;4.53;;;;;;;;;;5108301;28;20418;-73
2022/07/22 01:27:16;;;;;;;9.27;4.55;;;;;;;;;;5107732;28;20521;-73
2022/07/22 01:29:46;;;;;;;11.82;5.03;;;;;;;;;;5109997;28;20044;-73
2022/07/22 01:32:16;;;;;;;13.73;5.85;;;;;;;;;;5108220;28;20055;-73
2022/07/22 01:34:48;;;;;;;8.43;4.63;;;;;;;;;;5108296;28;20051;-75
2022/07/22 01:37:19;;;;;;;10.73;4.70;;;;;;;;;;5108455;28;20059;-73
2022/07/22 01:39:49;;;;;;;7.55;4.55;;;;;;;;;;5110770;28;20044;-73
2022/07/22 01:42:20;;;;;;;7.13;4.85;;;;;;;;;;5109528;28;20051;-73
2022/07/22 01:44:50;;;;;;;9.95;5.50;;;;;;;;;;5108773;28;20059;-73
2022/07/22 01:47:20;;;;;;;9.30;4.40;;;;;;;;;;5109577;28;20426;-73
2022/07/22 01:49:49;;;;;;;9.68;4.60;;;;;;;;;;5110657;28;20048;-73
2022/07/22 01:52:20;;;;;;;10.95;5.05;;;;;;;;;;5108408;28;20060;-73
2022/07/22 01:54:49;;;;;;;9.55;4.35;;;;;;;;;;5092771;28;20047;-74
2022/07/22 01:57:19;;;;;;;8.65;4.20;;;;;;;;;;5108974;28;20494;-73
2022/07/22 01:59:52;;;;;;;6.65;3.95;;;;;;;;;;5108507;28;20526;-73
2022/07/22 02:02:23;;;;;;;12.95;5.55;;;;;;;;;;5108952;28;20044;-73
2022/07/22 02:04:54;;;;;;;10.38;5.65;;;;;;;;;;5108830;28;20052;-74
2022/07/22 02:07:25;;;;;;;9.60;5.00;;;;;;;;;;5108846;28;20039;-73
2022/07/22 02:09:56;;;;;;;9.38;5.10;;;;;;;;;;5108178;28;20061;-73
2022/07/22 02:12:26;;;;;;;9.60;5.60;;;;;;;;;;5107998;28;20499;-74
2022/07/22 02:14:56;;;;;;;6.85;5.43;;;;;;;;;;5110060;28;20518;-73
2022/07/22 02:17:27;;;;;;;7.43;5.35;;;;;;;;;;5108617;28;20055;-73
2022/07/22 02:19:56;;;;;;;7.75;5.47;;;;;;;;;;5108210;28;20044;-74
2022/07/22 02:22:27;;;;;;;10.80;4.63;;;;;;;;;;5109991;28;20676;-73
2022/07/22 02:24:58;;;;;;;9.82;5.68;;;;;;;;;;5108339;28;20052;-73
2022/07/22 02:27:28;;;;;;;7.63;5.00;;;;;;;;;;5092035;28;20051;-73
2022/07/22 02:29:57;;;;;;;7.95;4.50;;;;;;;;;;5109926;28;20059;-73
2022/07/22 02:32:28;;;;;;;11.45;5.25;;;;;;;;;;5110226;28;20051;-73
2022/07/22 02:34:58;;;;;;;8.18;5.15;;;;;;;;;;5107745;28;20059;-74
2022/07/22 02:37:28;;;;;;;9.85;5.47;;;;;;;;;;5108185;28;20063;-73
2022/07/22 02:39:59;;;;;;;9.98;5.45;;;;;;;;;;5108245;28;20071;-73
2022/07/22 02:42:29;;;;;;;5.88;4.68;;;;;;;;;;5108140;28;20055;-73
2022/07/22 02:44:59;;;;;;;10.00;5.13;;;;;;;;;;5109880;28;20380;-73
2022/07/22 02:47:29;;;;;;;11.23;4.82;;;;;;;;;;5108200;28;20055;-72
2022/07/22 02:49:59;;;;;;;10.05;5.18;;;;;;;;;;5109699;28;20044;-73
2022/07/22 02:52:29;;;;;;;8.50;5.35;;;;;;;;;;5108120;28;20052;-73
2022/07/22 02:54:59;;;;;;;11.00;4.55;;;;;;;;;;5108210;28;20067;-73
2022/07/22 02:57:29;;;;;;;10.07;5.35;;;;;;;;;;5107717;28;20044;-73
2022/07/22 02:59:59;;;;;;;10.02;6.03;;;;;;;;;;5107586;28;20062;-73
2022/07/22 03:02:31;;;;;;;14.68;5.40;;;;;;;;;;5107952;28;20056;-73
2022/07/22 03:05:02;;;;;;;10.82;5.88;;;;;;;;;;5109301;28;20047;-73
2022/07/22 03:07:33;;;;;;;13.48;5.82;;;;;;;;;;5108734;28;20513;-73
2022/07/22 03:10:04;;;;;;;10.43;5.60;;;;;;;;;;5107385;28;20058;-73
2022/07/22 03:12:34;;;;;;;8.70;5.28;;;;;;;;;;5107962;28;20062;-73
2022/07/22 03:15:05;;;;;;;12.80;4.95;;;;;;;;;;5109049;28;20487;-73
2022/07/22 03:17:38;;;;;;;9.55;5.30;;;;;;;;;;5107880;28;20060;-73
2022/07/22 03:20:10;;;;;;;11.88;5.30;;;;;;;;;;5107281;28;20411;-73
2022/07/22 03:22:40;;;;;;;10.00;6.32;;;;;;;;;;5107003;28;20058;-73
2022/07/22 03:25:10;;;;;;;9.02;5.57;;;;;;;;;;5107571;28;20513;-73
2022/07/22 03:27:41;;;;;;;8.10;5.43;;;;;;;;;;5108182;28;20517;-73
2022/07/22 03:30:11;;;;;;;9.18;5.53;;;;;;;;;;5090523;28;20047;-73
2022/07/22 03:32:44;;;;;;;9.65;6.20;;;;;;;;;;5107587;28;20051;-72
2022/07/22 03:35:16;;;;;;;13.23;6.05;;;;;;;;;;5107743;28;20043;-73
2022/07/22 03:37:47;;;;;;;9.43;6.32;;;;;;;;;;5107090;28;20538;-73
2022/07/22 03:40:18;;;;;;;8.55;5.70;;;;;;;;;;5106718;28;20055;-73
2022/07/22 03:42:49;;;;;;;12.50;7.60;;;;;;;;;;5106809;28;20062;-73
2022/07/22 03:45:19;;;;;;;13.45;6.60;;;;;;;;;;5106652;28;20052;-73
2022/07/22 03:47:49;;;;;;;10.73;6.40;;;;;;;;;;5106478;28;20055;-73
2022/07/22 03:50:19;;;;;;;13.77;7.57;;;;;;;;;;5106232;28;20051;-73
2022/07/22 03:52:49;;;;;;;13.88;8.57;;;;;;;;;;5106428;28;20044;-73
2022/07/22 03:55:21;;;;;;;12.73;7.65;;;;;;;;;;5106485;28;20056;-73
2022/07/22 03:57:54;;;;;;;17.35;8.85;;;;;;;;;;5106454;28;20043;-73
2022/07/22 04:00:29;;;;;;;12.73;7.93;;;;;;;;;;5107133;28;20048;-73
2022/07/22 04:03:02;;;;;;;14.60;7.65;;;;;;;;;;5106408;28;20044;-73
2022/07/22 04:05:48;;;;;;;16.70;7.60;;;;;;;;;;5113054;28;20063;-73
2022/07/22 04:08:28;;;;;;;11.23;8.15;;;;;;;;;;5106499;28;20077;-73
2022/07/22 04:10:59;;;;;;;11.32;8.18;;;;;;;;;;5105912;28;20061;-73
2022/07/22 04:13:29;;;;;;;12.52;7.78;;;;;;;;;;5105913;28;20529;-73
2022/07/22 04:16:00;;;;;;;13.10;8.73;;;;;;;;;;5089885;28;20059;-73
2022/07/22 04:18:32;;;;;;;20.85;10.02;;;;;;;;;;5089586;28;20058;-73
2022/07/22 04:21:03;;;;;;;15.75;8.55;;;;;;;;;;5106360;28;20062;-73
2022/07/22 04:23:56;;;;;;;14.13;9.10;;;;;;;;;;5107545;28;20051;-73
2022/07/22 04:26:32;;;;;;;14.95;8.35;;;;;;;;;;5106468;28;20048;-73
2022/07/22 04:29:02;;;;;;;19.27;10.48;;;;;;;;;;5106264;28;20506;-73
2022/07/22 04:31:32;;;;;;;14.57;10.18;;;;;;;;;;5107610;28;20036;-73
2022/07/22 04:34:08;;;;;;;14.70;9.93;;;;;;;;;;5090067;28;20407;-73
2022/07/22 04:36:38;;;;;;;20.58;11.00;;;;;;;;;;5105756;28;20055;-73
2022/07/22 04:39:09;;;;;;;19.00;11.63;;;;;;;;;;5105525;28;20055;-73
2022/07/22 04:41:44;;;;;;;16.27;11.27;;;;;;;;;;5090069;28;20426;-73
2022/07/22 04:44:17;;;;;;;16.00;9.82;;;;;;;;;;5106629;28;20066;-73
2022/07/22 04:46:48;;;;;;;18.40;12.18;;;;;;;;;;5105938;28;20067;-73
2022/07/22 04:49:18;;;;;;;19.98;11.02;;;;;;;;;;5105034;28;20059;-73
2022/07/22 04:51:48;;;;;;;19.30;11.57;;;;;;;;;;5107565;28;20533;-73
2022/07/22 04:54:27;;;;;;;20.92;13.38;;;;;;;;;;5106322;28;20047;-73
2022/07/22 04:56:59;;;;;;;24.33;13.82;;;;;;;;;;5105248;28;20071;-73
2022/07/22 04:59:29;;;;;;;22.92;12.98;;;;;;;;;;5104645;28;20047;-73
2022/07/22 05:02:00;;;;;;;17.25;11.45;;;;;;;;;;5104509;28;20052;-73
2022/07/22 05:04:30;;;;;;;16.25;12.48;;;;;;;;;;5104711;28;20051;-73
2022/07/22 05:07:00;;;;;;;20.40;12.60;;;;;;;;;;5104658;28;20063;-73
2022/07/22 05:09:30;;;;;;;17.35;11.00;;;;;;;;;;5107395;28;20054;-73
2022/07/22 05:12:00;;;;;;;17.73;10.63;;;;;;;;;;5105048;28;20541;-73
2022/07/22 05:14:32;;;;;;;21.10;13.18;;;;;;;;;;5104912;28;20059;-73
2022/07/22 05:17:03;;;;;;;23.35;11.80;;;;;;;;;;5104773;28;20047;-73
2022/07/22 05:19:33;;;;;;;19.92;12.45;;;;;;;;;;5105765;28;20056;-73
2022/07/22 05:22:08;;;;;;;16.83;12.05;;;;;;;;;;5104764;28;20051;-73
2022/07/22 05:24:38;;;;;;;16.52;10.15;;;;;;;;;;5105120;28;20060;-73
2022/07/22 05:27:08;;;;;;;16.65;11.45;;;;;;;;;;5107314;28;20414;-73
2022/07/22 05:29:39;;;;;;;19.95;11.60;;;;;;;;;;5104699;28;20055;-73
2022/07/22 05:32:09;;;;;;;19.20;12.68;;;;;;;;;;5104803;28;20044;-73
2022/07/22 05:34:40;;;;;;;20.27;11.40;;;;;;;;;;5088080;28;20043;-73
2022/07/22 05:37:09;;;;;;;20.35;12.05;;;;;;;;;;5104593;28;20044;-73
2022/07/22 05:39:41;;;;;;;19.80;11.20;;;;;;;;;;5104538;28;20066;-73
2022/07/22 05:42:12;;;;;;;17.20;11.10;;;;;;;;;;5106596;28;20051;-73
2022/07/22 05:44:42;;;;;;;16.60;10.93;;;;;;;;;;5106950;28;20486;-73
2022/07/22 05:47:12;;;;;;;18.15;11.13;;;;;;;;;;5106290;28;20056;-73
2022/07/22 05:49:42;;;;;;;19.55;10.98;;;;;;;;;;5104765;28;20503;-73
2022/07/22 05:52:13;;;;;;;16.63;11.38;;;;;;;;;;5104841;28;21145;-73
2022/07/22 05:54:44;;;;;;;16.48;10.18;;;;;;;;;;5104511;28;20044;-73
2022/07/22 05:57:15;;;;;;;14.68;9.68;;;;;;;;;;5104724;28;20055;-73
2022/07/22 05:59:45;;;;;;;18.35;10.85;;;;;;;;;;5104964;28;20051;-73
2022/07/22 06:02:16;;;;;;;16.40;10.88;;;;;;;;;;5104619;28;20063;-73
2022/07/22 06:04:49;;;;;;;16.60;10.57;;;;;;;;;;5104358;28;20434;-73
2022/07/22 06:07:20;;;;;;;13.93;9.40;;;;;;;;;;5104602;28;20074;-73
2022/07/22 06:09:57;;;;;;;18.73;11.57;;;;;;;;;;5105678;28;20054;-73
2022/07/22 06:12:30;;;;;;;14.52;11.32;;;;;;;;;;5108520;28;20052;-73
2022/07/22 06:15:00;;;;;;;14.95;9.63;;;;;;;;;;5110454;28;20043;-73
2022/07/22 06:17:30;;;;;;;20.13;10.48;;;;;;;;;;5108534;28;20513;-73
2022/07/22 06:20:02;;;;;;;17.27;10.60;;;;;;;;;;5108277;28;20577;-73
2022/07/22 06:22:33;;;;;;;15.05;10.23;;;;;;;;;;5108594;28;20055;-73
2022/07/22 06:25:04;;;;;;;18.98;11.00;;;;;;;;;;5107823;28;20062;-73
2022/07/22 06:27:54;;;;;;;16.63;10.07;;;;;;;;;;5108556;28;20055;-73
2022/07/22 06:30:26;;;;;;;17.67;10.65;;;;;;;;;;5107839;28;20059;-73
2022/07/22 06:32:56;;;;;;;16.77;10.30;;;;;;;;;;5108636;28;20047;-73
2022/07/22 06:35:26;;;;;;;17.38;10.20;;;;;;;;;;5107533;28;20048;-73
2022/07/22 06:37:57;;;;;;;17.10;9.68;;;;;;;;;;5108069;28;20051;-73
2022/07/22 06:40:55;;;;;;;16.48;10.07;;;;;;;;;;5110122;28;20059;-73
2022/07/22 06:43:58;;;;;;;16.48;10.35;;;;;;;;;;5087136;28;20051;-73
2022/07/22 06:47:06;;;;;;;21.77;10.18;;;;;;;;;;5007249;28;20663;-74
2022/07/22 06:49:39;;;;;;;15.95;9.48;;;;;;;;;;5007425;28;20065;-73
2022/07/22 06:52:12;;;;;;;19.15;9.70;;;;;;;;;;5062401;28;20063;-73
2022/07/22 06:54:42;;;;;;;16.98;9.35;;;;;;;;;;5107770;28;20058;-72
2022/07/22 06:57:17;;;;;;;17.17;10.70;;;;;;;;;;5107044;28;20052;-72
2022/07/22 06:59:48;;;;;;;14.05;9.85;;;;;;;;;;5107069;28;20051;-72
2022/07/22 07:02:17;;;;;;;16.27;9.10;;;;;;;;;;5107342;28;20047;-72
2022/07/22 07:04:48;;;;;;;17.40;10.02;;;;;;;;;;5107880;28;20486;-72
2022/07/22 07:07:19;;;;;;;15.18;9.90;;;;;;;;;;5107176;28;20047;-72
2022/07/22 07:09:56;;;;;;;16.65;9.80;;;;;;;;;;5108019;28;20048;-72
2022/07/22 07:12:57;;;;;;;15.02;8.43;;;;;;;;;;5101565;28;20067;-72
2022/07/22 07:15:41;;;;;;;15.85;8.65;;;;;;;;;;5107407;28;20047;-72
2022/07/22 07:18:14;;;;;;;13.35;8.80;;;;;;;;;;5107467;28;20058;-72
2022/07/22 07:20:46;;;;;;;15.50;8.85;;;;;;;;;;5106901;28;20051;-72
2022/07/22 07:23:16;;;;;;;14.35;8.15;;;;;;;;;;5108314;28;20039;-72
2022/07/22 07:25:47;;;;;;;13.52;8.70;;;;;;;;;;5107020;28;20056;-72
2022/07/22 07:28:18;;;;;;;14.63;9.07;;;;;;;;;;5106878;28;20519;-72
2022/07/22 07:31:12;;;;;;;17.25;8.80;;;;;;;;;;5108848;28;20040;-72
2022/07/22 07:33:42;;;;;;;14.13;8.80;;;;;;;;;;5106926;28;20051;-72
2022/07/22 07:36:14;;;;;;;17.45;9.52;;;;;;;;;;5107285;28;20074;-72
2022/07/22 07:38:50;;;;;;;16.15;8.05;;;;;;;;;;5107021;28;20404;-72
2022/07/22 07:41:22;;;;;;;13.48;7.65;;;;;;;;;;5107404;28;20055;-72
2022/07/22 07:43:52;;;;;;;14.15;8.35;;;;;;;;;;5105977;28;20056;-72
2022/07/22 07:46:23;;;;;;;12.70;8.38;;;;;;;;;;5106888;28;20063;-72
2022/07/22 07:48:53;;;;;;;16.58;7.72;;;;;;;;;;5107025;28;20047;-72
2022/07/22 07:51:24;;;;;;;12.77;7.65;;;;;;;;;;5106802;28;20047;-72
2022/07/22 07:53:54;;;;;;;11.65;8.10;;;;;;;;;;5106939;28;20046;-72
2022/07/22 07:56:25;;;;;;;10.73;7.65;;;;;;;;;;5107026;28;20051;-72
2022/07/22 07:58:56;;;;;;;11.70;7.07;;;;;;;;;;5107272;28;20052;-72
2022/07/22 08:01:49;;;;;;;11.93;6.97;;;;;;;;;;5107058;28;20079;-72
2022/07/22 08:04:30;;;;;;;9.85;7.65;;;;;;;;;;5106379;28;20137;-72
2022/07/22 08:07:10;;;;;;;13.07;7.18;;;;;;;;;;5106282;28;20548;-72
2022/07/22 08:09:43;;;;;;;14.48;7.57;;;;;;;;;;5106107;28;20639;-72
2022/07/22 08:12:42;;;;;;;11.40;6.55;;;;;;;;;;5106494;28;20454;-72
2022/07/22 08:15:39;;;;;;;11.13;6.82;;;;;;;;;;5106099;28;20059;-72
2022/07/22 08:18:17;;;;;;;11.25;6.00;;;;;;;;;;5106624;28;20054;-72
2022/07/22 08:20:48;;;;;;;13.15;7.00;;;;;;;;;;5106004;28;20414;-72
2022/07/22 08:23:21;;;;;;;12.02;7.53;;;;;;;;;;5105986;28;20522;-72
2022/07/22 08:25:51;;;;;;;12.35;8.00;;;;;;;;;;5106378;28;20490;-74
2022/07/22 08:28:22;;;;;;;15.55;6.78;;;;;;;;;;5106205;28;20047;-72
2022/07/22 08:30:53;;;;;;;12.77;7.25;;;;;;;;;;5107643;28;20036;-72
2022/07/22 08:33:23;;;;;;;12.32;7.05;;;;;;;;;;5106236;28;20051;-72
2022/07/22 08:35:54;;;;;;;14.73;6.72;;;;;;;;;;5105749;28;20066;-72
2022/07/22 08:38:24;;;;;;;13.40;6.93;;;;;;;;;;5105996;28;20056;-72
2022/07/22 08:40:55;;;;;;;10.82;7.05;;;;;;;;;;5105492;28;20062;-72
2022/07/22 08:43:41;;;;;;;8.95;6.25;;;;;;;;;;5105898;28;20081;-72
2022/07/22 08:46:12;;;;;;;11.70;6.18;;;;;;;;;;5104667;28;20063;-72
2022/07/22 08:49:02;;;;;;;10.27;6.13;;;;;;;;;;5112127;28;20051;-72
2022/07/22 08:51:47;;;;;;;9.55;6.15;;;;;;;;;;5108201;28;20398;-72
2022/07/22 08:54:23;;;;;;;10.77;6.60;;;;;;;;;;5105380;28;20432;-72
2022/07/22 08:56:54;;;;;;;14.48;7.53;;;;;;;;;;5105787;28;20047;-72
2022/07/22 08:59:25;;;;;;;10.63;7.20;;;;;;;;;;5105356;28;20055;-72
2022/07/22 09:02:09;;;;;;;12.85;6.93;;;;;;;;;;5105444;28;20407;-74
2022/07/22 09:04:58;;;;;;;11.68;6.88;;;;;;;;;;5105931;28;20060;-72
2022/07/22 09:07:48;;;;;;;12.20;7.35;;;;;;;;;;5105471;28;20055;-72
2022/07/22 09:10:31;;;;;;;13.02;7.95;;;;;;;;;;5105379;28;20051;-72
2022/07/22 09:13:10;;;;;;;12.25;7.28;;;;;;;;;;5109248;28;20411;-72
2022/07/22 09:15:54;;;;;;;13.43;7.95;;;;;;;;;;5105692;28;20052;-72
2022/07/22 09:18:52;;;;;;;13.02;7.65;;;;;;;;;;5107117;28;20421;-72
2022/07/22 09:21:49;;;;;;;16.02;8.70;;;;;;;;;;5108445;28;20056;-72
2022/07/22 09:24:34;;;;;;;15.73;9.20;;;;;;;;;;5106985;28;20044;-73
2022/07/22 09:27:28;;;;;;;14.82;10.32;;;;;;;;;;5105579;28;20047;-72
2022/07/22 09:30:27;;;;;;;14.57;8.57;;;;;;;;;;5105394;28;20074;-72
2022/07/22 09:33:05;;;;;;;14.80;9.10;;;;;;;;;;5105591;28;20507;-72
2022/07/22 09:35:42;;;;;;;14.63;8.52;;;;;;;;;;5104798;28;20045;-72
2022/07/22 09:38:32;;;;;;;16.15;10.68;;;;;;;;;;5105386;28;20054;-72
2022/07/22 09:41:03;;;;;;;13.18;9.23;;;;;;;;;;5105245;28;20048;-72
2022/07/22 09:43:36;;;;;;;17.52;10.70;;;;;;;;;;5105387;28;20044;-72
2022/07/22 09:46:09;;;;;;;19.52;9.77;;;;;;;;;;5108193;28;20527;-72
2022/07/22 09:49:03;;;;;;;21.55;10.30;;;;;;;;;;5099876;28;20068;-72
2022/07/22 09:51:41;;;;;;;19.02;11.55;;;;;;;;;;5108925;28;20055;-72
2022/07/22 09:54:25;;;;;;;17.52;10.88;;;;;;;;;;5109145;28;20059;-76
2022/07/22 09:56:56;;;;;;;17.77;10.20;;;;;;;;;;5109023;28;20055;-72
2022/07/22 09:59:26;;;;;;;20.58;11.88;;;;;;;;;;5107650;28;20553;-72
2022/07/22 10:02:08;;;;;;;20.45;12.10;;;;;;;;;;5108431;28;20039;-72
2022/07/22 10:04:41;;;;;;;20.50;12.05;;;;;;;;;;5108363;28;20391;-73
2022/07/22 10:07:13;;;;;;;21.05;12.63;;;;;;;;;;5108287;28;20059;-73
2022/07/22 10:09:46;;;;;;;21.92;11.52;;;;;;;;;;5109082;28;20129;-72
2022/07/22 10:12:18;;;;;;;17.48;10.93;;;;;;;;;;5108516;28;20059;-72
2022/07/22 10:14:50;;;;;;;20.85;13.50;;;;;;;;;;5107981;28;20060;-72
2022/07/22 10:17:21;;;;;;;20.92;13.30;;;;;;;;;;5108086;28;20410;-72
2022/07/22 10:19:52;;;;;;;17.17;11.77;;;;;;;;;;5107956;28;20078;-72
2022/07/22 10:22:45;;;;;;;21.98;12.70;;;;;;;;;;5107667;28;20052;-72
2022/07/22 10:25:16;;;;;;;19.30;12.43;;;;;;;;;;5108552;28;20078;-73
2022/07/22 10:27:49;;;;;;;18.52;11.70;;;;;;;;;;5108114;28;20054;-72
2022/07/22 10:30:22;;;;;;;18.58;11.95;;;;;;;;;;5109743;28;20067;-72
2022/07/22 10:33:05;;;;;;;22.55;13.10;;;;;;;;;;5109504;28;20054;-73
2022/07/22 10:35:43;;;;;;;23.02;14.02;;;;;;;;;;5108627;28;20047;-75
2022/07/22 10:38:19;;;;;;;21.48;13.82;;;;;;;;;;5106943;28;20502;-73
2022/07/22 10:40:50;;;;;;;20.95;12.43;;;;;;;;;;5109785;28;20047;-73
2022/07/22 10:43:26;;;;;;;21.27;12.10;;;;;;;;;;5109638;28;20040;-73
2022/07/22 10:45:56;;;;;;;19.20;10.55;;;;;;;;;;5109875;28;20059;-73
2022/07/22 10:48:47;;;;;;;20.20;11.07;;;;;;;;;;5122258;27;20046;-74
2022/07/22 10:51:21;;;;;;;16.63;10.90;;;;;;;;;;5129059;27;20051;-73
2022/07/22 10:53:57;;;;;;;17.02;11.00;;;;;;;;;;5129172;27;20045;-75
2022/07/22 10:56:31;;;;;;;18.23;11.27;;;;;;;;;;5128026;27;20414;-74
2022/07/22 10:59:12;;;;;;;15.18;10.48;;;;;;;;;;5127177;27;20038;-74
2022/07/22 11:01:47;;;;;;;19.25;11.63;;;;;;;;;;5127517;27;20062;-73
2022/07/22 11:04:22;;;;;;;15.43;10.25;;;;;;;;;;5129884;27;20047;-74
2022/07/22 11:06:56;;;;;;;16.67;9.88;;;;;;;;;;5130778;27;20074;-73
2022/07/22 11:09:34;;;;;;;13.90;9.00;;;;;;;;;;5129723;27;20043;-73
2022/07/22 11:12:13;;;;;;;24.20;12.10;;;;;;;;;;5129586;27;20509;-73
2022/07/22 11:14:43;;;;;;;19.58;8.80;;;;;;;;;;5129430;27;20498;-73
2022/07/22 11:17:16;;;;;;;11.57;6.90;;;;;;;;;;5128497;27;20055;-73
2022/07/22 11:19:50;;;;;;;9.98;6.80;;;;;;;;;;5130502;27;20508;-73
2022/07/22 11:22:22;;;;;;;12.40;6.88;;;;;;;;;;5129805;27;20058;-73
2022/07/22 11:24:52;;;;;;;16.60;8.05;;;;;;;;;;5129364;27;20054;-73
2022/07/22 11:27:22;;;;;;;12.45;7.03;;;;;;;;;;5129986;27;20506;-73
2022/07/22 11:29:56;;;;;;;9.77;6.30;;;;;;;;;;5128956;27;20051;-77
2022/07/22 11:32:32;;;;;;;13.35;7.47;;;;;;;;;;5129855;27;20043;-73
2022/07/22 11:35:02;;;;;;;10.75;7.30;;;;;;;;;;5129237;27;20054;-73
2022/07/22 11:37:33;;;;;;;10.95;6.68;;;;;;;;;;5129173;27;20046;-73
2022/07/22 11:40:08;;;;;;;12.07;8.45;;;;;;;;;;5129180;27;20043;-75
2022/07/22 11:42:38;;;;;;;29.63;11.48;;;;;;;;;;5129147;27;20062;-74
2022/07/22 11:45:08;;;;;;;14.55;8.20;;;;;;;;;;5129215;27;20059;-76
2022/07/22 11:47:49;;;;;;;16.60;8.30;;;;;;;;;;5129160;27;20050;-73
2022/07/22 11:50:32;;;;;;;13.85;8.13;;;;;;;;;;5129152;27;20049;-73
2022/07/22 11:53:05;;;;;;;18.95;8.05;;;;;;;;;;5128877;27;20402;-73
2022/07/22 11:55:35;;;;;;;19.38;9.55;;;;;;;;;;5129473;27;20050;-73
2022/07/22 11:58:05;;;;;;;17.10;8.57;;;;;;;;;;5129331;27;20043;-73
2022/07/22 12:00:35;;;;;;;18.95;9.05;;;;;;;;;;5128639;27;20489;-73
2022/07/22 12:03:06;;;;;;;18.30;8.98;;;;;;;;;;5128906;27;20043;-74
2022/07/22 12:05:36;;;;;;;11.90;7.20;;;;;;;;;;5129245;27;20047;-73
2022/07/22 12:08:07;;;;;;;17.17;8.63;;;;;;;;;;5127839;27;20047;-74
2022/07/22 12:10:36;;;;;;;33.08;11.00;;;;;;;;;;5128274;27;20497;-73
2022/07/22 12:13:10;;;;;;;11.55;7.10;;;;;;;;;;5128328;27;20413;-73
2022/07/22 12:15:40;;;;;;;12.23;8.35;;;;;;;;;;5128906;27;20608;-73
2022/07/22 12:18:22;;;;;;;12.75;9.32;;;;;;;;;;5127167;27;20039;-74
2022/07/22 12:20:54;;;;;;;18.52;8.15;;;;;;;;;;5129274;27;20402;-74
2022/07/22 12:23:26;;;;;;;13.32;8.60;;;;;;;;;;5128123;27;20043;-73
2022/07/22 12:26:01;;;;;;;14.10;7.93;;;;;;;;;;5126965;27;20055;-74
2022/07/22 12:28:31;;;;;;;11.00;7.35;;;;;;;;;;5128384;27;20050;-73
2022/07/22 12:31:01;;;;;;;15.70;6.85;;;;;;;;;;5128155;27;20418;-73
2022/07/22 12:33:31;;;;;;;23.60;8.00;;;;;;;;;;5126546;27;20047;-73
2022/07/22 12:36:07;;;;;;;12.85;7.30;;;;;;;;;;5128052;27;20047;-75
2022/07/22 12:38:38;;;;;;;14.20;7.13;;;;;;;;;;5128115;27;20054;-73
2022/07/22 12:41:26;;;;;;;24.05;7.25;;;;;;;;;;5128184;27;20490;-74
2022/07/22 12:43:56;;;;;;;12.90;6.80;;;;;;;;;;5127262;27;20066;-74
2022/07/22 12:46:27;;;;;;;14.07;6.93;;;;;;;;;;5126795;27;20055;-75
2022/07/22 12:49:00;;;;;;;13.65;6.25;;;;;;;;;;5128662;27;20035;-75
2022/07/22 12:52:02;;;;;;;15.65;6.38;;;;;;;;;;5128223;27;20047;-74
2022/07/22 12:54:34;;;;;;;21.27;5.80;;;;;;;;;;5127320;27;20039;-74
2022/07/22 12:57:06;;;;;;;11.95;6.53;;;;;;;;;;5128103;27;20105;-75
2022/07/22 12:59:36;;;;;;;21.65;6.50;;;;;;;;;;5127702;27;20051;-75
2022/07/22 13:02:06;;;;;;;26.02;8.73;;;;;;;;;;5127776;27;20128;-74
2022/07/22 13:04:36;;;;;;;18.00;5.90;;;;;;;;;;5125964;27;20059;-73
2022/07/22 13:07:06;;;;;;;10.02;5.60;;;;;;;;;;5127712;27;20047;-77
2022/07/22 13:09:40;;;;;;;14.00;5.97;;;;;;;;;;5128061;27;20047;-74
2022/07/22 13:12:10;;;;;;;14.35;5.28;;;;;;;;;;5128010;27;20591;-74
2022/07/22 13:14:41;;;;;;;11.40;4.70;;;;;;;;;;5128219;27;20410;-74
2022/07/22 13:17:12;;;;;;;9.70;4.85;;;;;;;;;;5127531;27;20102;-74
2022/07/22 13:19:43;;;;;;;9.82;3.97;;;;;;;;;;5126885;27;20047;-74
2022/07/22 13:22:14;;;;;;;8.10;3.83;;;;;;;;;;5127528;27;20043;-74
2022/07/22 13:24:43;;;;;;;7.65;3.70;;;;;;;;;;5126180;28;20047;-74
2022/07/22 13:27:14;;;;;;;8.60;4.07;;;;;;;;;;5127216;28;20051;-74
2022/07/22 13:29:43;;;;;;;12.57;4.45;;;;;;;;;;5127090;28;20053;-74
2022/07/22 13:32:14;;;;;;;12.32;4.47;;;;;;;;;;5127455;28;20039;-74
2022/07/22 13:34:56;;;;;;;8.57;3.45;;;;;;;;;;5127401;28;20690;-74
2022/07/22 13:37:26;;;;;;;6.30;3.70;;;;;;;;;;5126972;28;20050;-74
2022/07/22 13:39:55;;;;;;;8.18;3.78;;;;;;;;;;5127410;28;20054;-75
2022/07/22 13:42:25;;;;;;;10.27;3.58;;;;;;;;;;5127707;28;20051;-75
2022/07/22 13:44:55;;;;;;;13.93;4.13;;;;;;;;;;5127292;28;20059;-74
2022/07/22 13:47:26;;;;;;;11.75;3.75;;;;;;;;;;5126392;27;20054;-76
2022/07/22 13:49:57;;;;;;;10.27;3.42;;;;;;;;;;5127178;28;20403;-73
2022/07/22 13:52:27;;;;;;;7.25;3.33;;;;;;;;;;5127365;28;20402;-74
2022/07/22 13:54:57;;;;;;;10.02;4.20;;;;;;;;;;5127328;28;20062;-73
2022/07/22 13:57:27;;;;;;;8.45;3.65;;;;;;;;;;5127287;28;20490;-74
2022/07/22 13:59:57;;;;;;;7.30;3.75;;;;;;;;;;5127266;28;20070;-73
2022/07/22 14:02:27;;;;;;;7.03;4.03;;;;;;;;;;5124851;28;20062;-73
2022/07/22 14:04:57;;;;;;;7.07;4.13;;;;;;;;;;5126901;28;20074;-73
2022/07/22 14:07:26;;;;;;;8.13;3.80;;;;;;;;;;5125883;28;20055;-75
2022/07/22 14:09:56;;;;;;;7.60;3.45;;;;;;;;;;5127177;28;20047;-74
2022/07/22 14:12:26;;;;;;;6.32;3.60;;;;;;;;;;5126853;28;20055;-74
2022/07/22 14:14:56;;;;;;;8.23;3.65;;;;;;;;;;5125217;28;20050;-74
2022/07/22 14:17:27;;;;;;;13.32;4.38;;;;;;;;;;5126900;28;20522;-73
2022/07/22 14:19:59;;;;;;;8.13;3.25;;;;;;;;;;5126899;28;20438;-74
2022/07/22 14:22:30;;;;;;;10.68;3.72;;;;;;;;;;5127041;28;20047;-74
2022/07/22 14:25:00;;;;;;;8.20;3.80;;;;;;;;;;5126925;28;20039;-74
2022/07/22 14:27:30;;;;;;;11.85;4.35;;;;;;;;;;5126914;28;20054;-73
2022/07/22 14:30:01;;;;;;;8.25;3.97;;;;;;;;;;5127325;27;20039;-73
2022/07/22 14:32:31;;;;;;;11.45;4.20;;;;;;;;;;5129687;27;20062;-73
2022/07/22 14:35:02;;;;;;;7.68;4.20;;;;;;;;;;5130757;27;20383;-74
2022/07/22 14:37:33;;;;;;;11.23;3.88;;;;;;;;;;5130540;27;20047;-73
2022/07/22 14:40:04;;;;;;;6.22;4.10;;;;;;;;;;5130302;27;20051;-73
2022/07/22 14:42:35;;;;;;;7.97;3.80;;;;;;;;;;5130408;27;20051;-74
2022/07/22 14:45:06;;;;;;;9.35;3.83;;;;;;;;;;5129652;27;20425;-73
2022/07/22 14:47:37;;;;;;;8.85;4.38;;;;;;;;;;5128813;27;20043;-73
2022/07/22 14:50:08;;;;;;;12.80;4.15;;;;;;;;;;5130311;27;20047;-74
2022/07/22 14:52:37;;;;;;;8.00;3.45;;;;;;;;;;5130193;27;20410;-74
2022/07/22 14:55:07;;;;;;;15.32;4.60;;;;;;;;;;5130525;27;20047;-73
2022/07/22 14:57:38;;;;;;;11.75;4.50;;;;;;;;;;5130073;27;20051;-73
2022/07/22 15:00:09;;;;;;;14.13;5.85;;;;;;;;;;5130276;27;20047;-73
2022/07/22 15:02:39;;;;;;;12.80;4.90;;;;;;;;;;5130063;27;20042;-76
2022/07/22 15:05:09;;;;;;;10.00;4.85;;;;;;;;;;5129945;27;20043;-73
2022/07/22 15:07:40;;;;;;;12.93;5.25;;;;;;;;;;5129590;27;20050;-74